createdAt,value
2022-07-30T00:01:54.425Z,34.67
2022-07-30T00:04:22.435Z,39.03
2022-07-30T00:06:50.231Z,39.92
2022-07-30T00:09:17.948Z,35.75
2022-07-30T00:11:45.711Z,38.97
2022-07-30T00:14:13.463Z,40.08
2022-07-30T00:16:41.291Z,39.70
2022-07-30T00:19:09.938Z,42.78
2022-07-30T00:21:39.206Z,42.72
2022-07-30T00:24:08.795Z,37.58
2022-07-30T00:26:36.763Z,39.70
2022-07-30T00:29:05.792Z,38.58
2022-07-30T00:31:33.710Z,39.63
2022-07-30T00:34:01.409Z,38.70
2022-07-30T00:36:29.274Z,41.58
2022-07-30T00:39:02.604Z,36.97
2022-07-30T00:41:30.384Z,40.40
2022-07-30T00:43:58.134Z,39.85
2022-07-30T00:46:25.893Z,41.75
2022-07-30T00:48:53.704Z,40.70
2022-07-30T00:51:21.522Z,41.22
2022-07-30T00:53:49.353Z,39.92
2022-07-30T00:56:17.118Z,38.92
2022-07-30T00:58:44.869Z,43.40
2022-07-30T01:01:12.678Z,38.47
2022-07-30T01:03:40.813Z,42.35
2022-07-30T01:06:14.281Z,41.60
2022-07-30T01:08:43.479Z,40.78
2022-07-30T01:11:12.045Z,39.60
2022-07-30T01:13:45.073Z,38.42
2022-07-30T01:16:13.582Z,37.85
2022-07-30T01:19:02.029Z,38.25
2022-07-30T01:21:36.978Z,40.42
2022-07-30T01:24:19.255Z,39.22
2022-07-30T01:26:47.829Z,38.33
2022-07-30T01:29:17.818Z,36.80
2022-07-30T01:31:48.346Z,38.00
2022-07-30T01:34:17.691Z,39.72
2022-07-30T01:36:47.171Z,39.88
2022-07-30T01:39:17.759Z,37.50
2022-07-30T01:41:48.484Z,39.28
2022-07-30T01:44:23.932Z,41.58
2022-07-30T01:46:55.028Z,43.05
2022-07-30T01:49:24.441Z,40.80
2022-07-30T01:51:53.618Z,37.00
2022-07-30T01:54:24.329Z,40.65
2022-07-30T01:56:56.402Z,38.03
2022-07-30T01:59:25.395Z,41.88
2022-07-30T02:01:53.564Z,41.97
2022-07-30T02:04:21.551Z,37.17
2022-07-30T02:07:33.554Z,37.05
2022-07-30T02:10:11.029Z,37.40
2022-07-30T02:12:50.259Z,40.03
2022-07-30T02:15:49.324Z,37.05
2022-07-30T02:18:43.892Z,34.40
2022-07-30T02:21:17.762Z,33.70
2022-07-30T02:23:48.980Z,39.47
2022-07-30T02:26:21.358Z,37.25
2022-07-30T02:28:54.668Z,41.53
2022-07-30T02:31:27.355Z,41.17
2022-07-30T02:34:00.115Z,39.05
2022-07-30T02:36:30.038Z,38.97
2022-07-30T02:38:59.932Z,40.17
2022-07-30T02:41:33.182Z,39.30
2022-07-30T02:44:01.954Z,37.58
2022-07-30T02:46:32.629Z,38.05
2022-07-30T02:49:37.148Z,35.15
2022-07-30T02:52:11.186Z,40.10
2022-07-30T02:54:41.549Z,37.60
2022-07-30T02:57:10.863Z,37.95
2022-07-30T02:59:42.334Z,39.30
2022-07-30T03:02:11.910Z,37.10
2022-07-30T03:04:43.685Z,37.92
2022-07-30T03:07:12.219Z,39.20
2022-07-30T03:09:51.149Z,40.20
2022-07-30T03:12:22.651Z,32.33
2022-07-30T03:14:52.549Z,36.90
2022-07-30T03:17:22.550Z,39.45
2022-07-30T03:19:51.385Z,39.38
2022-07-30T03:22:21.403Z,36.47
2022-07-30T03:24:50.638Z,35.80
2022-07-30T03:27:19.218Z,33.08
2022-07-30T03:29:48.787Z,36.00
2022-07-30T03:32:16.794Z,36.95
2022-07-30T03:34:47.599Z,37.30
2022-07-30T03:37:15.921Z,34.90
2022-07-30T03:39:44.867Z,35.88
2022-07-30T03:42:13.079Z,35.22
2022-07-30T03:44:42.693Z,36.60
2022-07-30T03:47:10.778Z,35.28
2022-07-30T03:49:44.893Z,31.52
2022-07-30T03:52:13.471Z,31.55
2022-07-30T03:54:41.988Z,34.58
2022-07-30T03:57:36.394Z,31.60
2022-07-30T04:00:14.733Z,32.05
2022-07-30T04:02:47.734Z,33.63
2022-07-30T04:05:37.734Z,32.00
2022-07-30T04:08:12.587Z,31.10
2022-07-30T04:10:51.558Z,33.92
2022-07-30T04:13:22.390Z,34.25
2022-07-30T04:16:39.240Z,36.05
2022-07-30T04:19:03.723Z,31.60
2022-07-30T04:21:34.260Z,30.52
2022-07-30T04:24:04.350Z,32.45
2022-07-30T04:26:36.118Z,32.67
2022-07-30T04:29:08.725Z,33.35
2022-07-30T04:31:40.570Z,31.92
2022-07-30T04:34:32.033Z,31.52
2022-07-30T04:37:00.533Z,32.70
2022-07-30T04:39:29.738Z,30.27
2022-07-30T04:41:57.680Z,33.50
2022-07-30T04:44:34.558Z,31.02
2022-07-30T04:47:25.411Z,30.08
2022-07-30T04:50:14.286Z,31.15
2022-07-30T04:52:43.939Z,30.77
2022-07-30T04:55:14.102Z,35.30
2022-07-30T04:57:43.972Z,31.00
2022-07-30T05:00:12.384Z,33.33
2022-07-30T05:02:43.202Z,30.00
2022-07-30T05:05:16.228Z,35.28
2022-07-30T05:07:46.359Z,33.58
2022-07-30T05:10:15.042Z,30.35
2022-07-30T05:12:43.593Z,29.20
2022-07-30T05:15:12.164Z,28.75
2022-07-30T05:17:40.227Z,29.33
2022-07-30T05:20:10.853Z,31.73
2022-07-30T05:23:05.570Z,31.63
2022-07-30T05:25:33.748Z,33.83
2022-07-30T05:28:28.153Z,34.38
2022-07-30T05:30:57.813Z,33.92
2022-07-30T05:33:41.122Z,31.77
2022-07-30T05:36:13.837Z,30.25
2022-07-30T05:38:41.873Z,33.92
2022-07-30T05:41:32.838Z,33.90
2022-07-30T05:44:23.863Z,31.40
2022-07-30T05:46:52.709Z,33.03
2022-07-30T05:49:20.703Z,28.85
2022-07-30T05:51:48.567Z,32.28
2022-07-30T05:54:18.943Z,34.00
2022-07-30T05:57:19.213Z,28.08
2022-07-30T05:59:47.875Z,31.27
2022-07-30T06:02:51.304Z,30.10
2022-07-30T06:05:28.307Z,32.22
2022-07-30T06:08:00.150Z,32.67
2022-07-30T06:10:29.444Z,35.58
2022-07-30T06:12:57.306Z,30.80
2022-07-30T06:15:26.849Z,31.35
2022-07-30T06:18:02.054Z,32.60
2022-07-30T06:21:00.000Z,33.42
2022-07-30T06:23:34.876Z,37.75
2022-07-30T06:26:15.443Z,34.13
2022-07-30T06:28:44.178Z,33.42
2022-07-30T06:31:19.548Z,32.67
2022-07-30T06:33:49.964Z,30.75
2022-07-30T06:36:17.709Z,33.42
2022-07-30T06:39:08.144Z,33.45
2022-07-30T06:41:55.749Z,27.95
2022-07-30T06:44:23.717Z,29.23
2022-07-30T06:47:29.676Z,29.45
2022-07-30T06:50:01.230Z,27.20
2022-07-30T06:52:33.641Z,24.77
2022-07-30T06:55:01.610Z,24.58
2022-07-30T06:57:40.398Z,24.45
2022-07-30T07:00:26.099Z,11.55
2022-07-30T07:02:54.140Z,11.57
2022-07-30T07:05:30.760Z,11.95
2022-07-30T07:07:59.882Z,16.80
2022-07-30T07:10:33.773Z,11.80
2022-07-30T07:13:16.699Z,16.92
2022-07-30T07:15:44.964Z,17.95
2022-07-30T07:18:17.703Z,23.60
2022-07-30T07:20:52.699Z,25.50
2022-07-30T07:23:20.398Z,15.93
2022-07-30T07:25:52.055Z,12.27
2022-07-30T07:28:20.040Z,16.60
2022-07-30T07:30:48.601Z,20.08
2022-07-30T07:33:18.019Z,18.33
2022-07-30T07:35:49.749Z,16.27
2022-07-30T07:38:26.790Z,12.38
2022-07-30T07:40:56.082Z,16.88
2022-07-30T07:43:25.356Z,17.85
2022-07-30T07:45:56.203Z,12.30
2022-07-30T07:48:26.081Z,15.52
2022-07-30T07:51:09.566Z,15.18
2022-07-30T07:53:38.293Z,16.20
2022-07-30T07:56:08.680Z,19.98
2022-07-30T07:58:38.258Z,16.77
2022-07-30T08:01:10.234Z,17.63
2022-07-30T08:04:04.553Z,14.15
2022-07-30T08:07:07.408Z,15.52
2022-07-30T08:09:53.557Z,17.27
2022-07-30T08:12:28.556Z,18.05
2022-07-30T08:15:18.014Z,21.42
2022-07-30T08:17:48.033Z,22.85
2022-07-30T08:20:22.649Z,19.73
2022-07-30T08:22:50.919Z,21.52
2022-07-30T08:25:21.858Z,22.63
2022-07-30T08:27:53.265Z,22.02
2022-07-30T08:30:21.612Z,25.50
2022-07-30T08:32:49.550Z,24.73
2022-07-30T08:35:18.147Z,27.95
2022-07-30T08:37:46.510Z,26.80
2022-07-30T08:40:15.432Z,28.27
2022-07-30T08:42:53.473Z,28.90
2022-07-30T08:45:34.718Z,28.40
2022-07-30T08:48:29.030Z,27.97
2022-07-30T08:50:57.875Z,24.30
2022-07-30T08:53:35.565Z,24.27
2022-07-30T08:56:05.013Z,26.08
2022-07-30T08:58:35.536Z,23.73
2022-07-30T09:01:05.524Z,21.50
2022-07-30T09:03:33.940Z,21.48
2022-07-30T09:06:03.986Z,17.98
2022-07-30T09:08:32.274Z,19.60
2022-07-30T09:11:00.213Z,15.02
2022-07-30T09:13:29.928Z,14.57
2022-07-30T09:15:59.667Z,13.88
2022-07-30T09:18:30.031Z,12.63
2022-07-30T09:21:25.271Z,13.65
2022-07-30T09:24:13.844Z,11.02
2022-07-30T09:27:03.234Z,11.40
2022-07-30T09:29:59.074Z,10.63
2022-07-30T09:35:32.038Z,9.77
2022-07-30T09:38:13.132Z,10.70
2022-07-30T09:40:57.737Z,8.68
2022-07-30T09:43:51.918Z,9.85
2022-07-30T09:46:48.329Z,9.10
2022-07-30T09:49:27.777Z,10.07
2022-07-30T09:51:57.525Z,9.85
2022-07-30T09:54:50.751Z,9.25
2022-07-30T09:57:26.063Z,8.98
2022-07-30T10:00:01.749Z,9.52
2022-07-30T10:02:32.801Z,10.52
2022-07-30T10:05:21.084Z,9.93
2022-07-30T10:07:51.466Z,9.23
2022-07-30T10:10:31.180Z,10.38
2022-07-30T10:13:04.445Z,9.20
2022-07-30T10:15:35.762Z,11.00
2022-07-30T10:18:06.706Z,9.68
2022-07-30T10:21:07.430Z,9.50
2022-07-30T10:23:54.524Z,9.23
2022-07-30T10:26:43.709Z,11.48
2022-07-30T10:29:33.590Z,11.23
2022-07-30T10:32:03.933Z,12.38
2022-07-30T10:34:34.490Z,13.50
2022-07-30T10:37:06.830Z,13.30
2022-07-30T10:39:39.547Z,14.63
2022-07-30T10:42:29.564Z,16.30
2022-07-30T10:45:09.356Z,14.00
2022-07-30T10:47:48.998Z,17.48
2022-07-30T10:50:22.203Z,18.15
2022-07-30T10:52:53.417Z,18.42
2022-07-30T10:55:36.893Z,22.52
2022-07-30T10:58:15.698Z,17.02
2022-07-30T11:00:52.099Z,21.17
2022-07-30T11:03:40.111Z,22.13
2022-07-30T11:06:15.250Z,19.55
2022-07-30T11:08:48.635Z,23.75
2022-07-30T11:12:01.869Z,24.27
2022-07-30T11:14:10.416Z,24.10
2022-07-30T11:16:42.083Z,28.05
2022-07-30T11:19:55.373Z,30.67
2022-07-30T11:22:27.208Z,25.88
2022-07-30T11:24:55.365Z,27.45
2022-07-30T11:27:46.039Z,32.80
2022-07-30T11:30:17.573Z,30.45
2022-07-30T11:32:49.920Z,27.45
2022-07-30T11:35:23.648Z,28.73
2022-07-30T11:38:08.444Z,32.25
2022-07-30T11:40:57.305Z,28.87
2022-07-30T11:43:36.057Z,25.75
2022-07-30T11:46:07.521Z,23.27
2022-07-30T11:48:42.994Z,26.08
2022-07-30T11:51:11.008Z,24.25
2022-07-30T11:53:38.771Z,26.58
2022-07-30T11:56:07.376Z,25.08
2022-07-30T11:58:41.710Z,28.38
2022-07-30T12:01:14.594Z,30.75
2022-07-30T12:03:44.715Z,34.42
2022-07-30T12:06:20.305Z,29.58
2022-07-30T12:08:52.881Z,28.23
2022-07-30T12:11:23.026Z,22.30
2022-07-30T12:13:59.788Z,26.55
2022-07-30T12:16:29.078Z,26.67
2022-07-30T12:19:05.495Z,27.10
2022-07-30T12:21:34.229Z,28.25
2022-07-30T12:24:10.447Z,28.90
2022-07-30T12:26:38.342Z,22.55
2022-07-30T12:29:10.264Z,25.55
2022-07-30T12:31:40.270Z,24.30
2022-07-30T12:34:24.607Z,24.70
2022-07-30T12:36:53.194Z,27.98
2022-07-30T12:39:26.758Z,27.77
2022-07-30T12:41:58.530Z,25.20
2022-07-30T12:44:40.429Z,25.40
2022-07-30T12:47:22.134Z,22.02
2022-07-30T12:49:53.322Z,26.35
2022-07-30T12:52:35.868Z,26.40
2022-07-30T12:55:12.724Z,22.35
2022-07-30T12:58:07.001Z,27.48
2022-07-30T13:00:44.930Z,21.30
2022-07-30T13:03:26.218Z,21.55
2022-07-30T13:05:56.337Z,20.52
2022-07-30T13:08:46.022Z,23.65
2022-07-30T13:11:14.640Z,24.85
2022-07-30T13:13:42.504Z,23.08
2022-07-30T13:16:11.419Z,20.63
2022-07-30T13:18:40.680Z,21.65
2022-07-30T13:21:09.423Z,16.73
2022-07-30T13:23:40.515Z,18.23
2022-07-30T13:26:10.295Z,18.00
2022-07-30T13:28:38.340Z,19.75
2022-07-30T13:31:07.616Z,15.05
2022-07-30T13:33:39.410Z,15.77
2022-07-30T13:36:07.772Z,14.50
2022-07-30T13:38:35.806Z,14.80
2022-07-30T13:41:04.971Z,15.65
2022-07-30T13:43:34.076Z,12.13
2022-07-30T13:46:03.313Z,16.83
2022-07-30T13:48:32.365Z,13.60
2022-07-30T13:51:04.926Z,13.45
2022-07-30T13:53:32.803Z,13.23
2022-07-30T13:56:00.651Z,17.85
2022-07-30T13:58:35.555Z,13.10
2022-07-30T14:01:07.086Z,12.73
2022-07-30T14:03:35.450Z,12.82
2022-07-30T14:06:10.857Z,11.13
2022-07-30T14:08:39.621Z,11.23
2022-07-30T14:11:07.367Z,17.58
2022-07-30T14:13:35.049Z,14.38
2022-07-30T14:16:02.986Z,13.75
2022-07-30T14:18:30.755Z,13.55
2022-07-30T14:20:58.486Z,14.55
2022-07-30T14:23:26.453Z,10.65
2022-07-30T14:25:54.220Z,9.98
2022-07-30T14:28:22.064Z,10.30
2022-07-30T14:30:50.195Z,8.60
2022-07-30T14:33:18.167Z,9.82
2022-07-30T14:35:46.205Z,11.55
2022-07-30T14:38:18.057Z,9.18
2022-07-30T14:40:47.027Z,9.75
2022-07-30T14:43:14.882Z,9.48
2022-07-30T14:45:42.670Z,9.30
2022-07-30T14:48:10.369Z,10.95
2022-07-30T14:50:51.436Z,9.35
2022-07-30T14:53:25.838Z,11.85
2022-07-30T14:55:53.547Z,8.68
2022-07-30T14:58:24.122Z,9.70
2022-07-30T15:00:58.138Z,9.18
2022-07-30T15:03:26.592Z,9.10
2022-07-30T15:05:54.270Z,13.02
2022-07-30T15:08:22.024Z,9.57
2022-07-30T15:10:49.681Z,8.65
2022-07-30T15:13:17.916Z,6.68
2022-07-30T15:15:47.791Z,4.55
2022-07-30T15:18:15.584Z,4.57
2022-07-30T15:20:43.456Z,4.07
2022-07-30T15:23:13.498Z,3.63
2022-07-30T15:25:41.988Z,3.30
2022-07-30T15:28:12.786Z,4.32
2022-07-30T15:30:41.406Z,3.80
2022-07-30T15:33:09.141Z,4.07
2022-07-30T15:35:38.348Z,4.80
2022-07-30T15:38:06.157Z,5.18
2022-07-30T15:40:33.903Z,5.85
2022-07-30T15:43:01.733Z,6.95
2022-07-30T15:45:55.891Z,7.85
2022-07-30T15:48:26.859Z,6.70
2022-07-30T15:51:05.285Z,7.90
2022-07-30T15:53:33.207Z,8.55
2022-07-30T15:56:01.157Z,9.05
2022-07-30T15:58:28.936Z,8.45
2022-07-30T16:00:57.281Z,9.65
2022-07-30T16:03:25.116Z,9.02
2022-07-30T16:05:54.069Z,9.95
2022-07-30T16:08:22.045Z,8.88
2022-07-30T16:10:50.199Z,8.75
2022-07-30T16:13:18.575Z,9.35
2022-07-30T16:15:46.407Z,9.43
2022-07-30T16:18:14.269Z,10.23
2022-07-30T16:20:42.008Z,8.20
2022-07-30T16:23:13.931Z,9.68
2022-07-30T16:25:43.710Z,9.27
2022-07-30T16:28:11.453Z,9.70
2022-07-30T16:30:50.515Z,10.10
2022-07-30T16:33:20.024Z,10.55
2022-07-30T16:35:49.189Z,10.35
2022-07-30T16:38:19.545Z,13.60
2022-07-30T16:40:47.768Z,20.98
2022-07-30T16:43:19.887Z,22.58
2022-07-30T16:45:48.669Z,20.77
2022-07-30T16:48:16.653Z,20.77
2022-07-30T16:50:44.818Z,18.55
2022-07-30T16:53:14.387Z,14.38
2022-07-30T16:55:44.325Z,9.52
2022-07-30T16:58:12.729Z,13.82
2022-07-30T17:00:40.845Z,10.88
2022-07-30T17:03:10.269Z,11.90
2022-07-30T17:05:45.099Z,10.05
2022-07-30T17:08:13.544Z,6.35
2022-07-30T17:10:42.042Z,11.32
2022-07-30T17:13:11.889Z,10.43
2022-07-30T17:15:40.202Z,7.60
2022-07-30T17:18:08.652Z,7.30
2022-07-30T17:20:36.591Z,5.43
2022-07-30T17:23:04.807Z,6.40
2022-07-30T17:25:32.640Z,7.30
2022-07-30T17:28:01.110Z,9.77
2022-07-30T17:30:30.073Z,14.02
2022-07-30T17:32:58.909Z,13.77
2022-07-30T17:35:27.130Z,11.82
2022-07-30T17:37:55.213Z,11.48
2022-07-30T17:40:30.269Z,11.15
2022-07-30T17:43:07.761Z,10.32
2022-07-30T17:45:38.645Z,11.55
2022-07-30T17:48:07.976Z,10.00
2022-07-30T17:50:35.941Z,9.25
2022-07-30T17:53:05.979Z,10.60
2022-07-30T17:55:37.077Z,11.65
2022-07-30T17:58:05.560Z,8.55
2022-07-30T18:00:37.952Z,10.57
2022-07-30T18:03:05.729Z,10.32
2022-07-30T18:05:33.643Z,3.42
2022-07-30T18:08:01.697Z,4.25
2022-07-30T18:10:29.531Z,6.05
2022-07-30T18:12:57.370Z,4.95
2022-07-30T18:15:26.357Z,4.57
2022-07-30T18:17:57.114Z,4.45
2022-07-30T18:20:24.929Z,3.65
2022-07-30T18:22:55.375Z,2.92
2022-07-30T18:25:26.470Z,3.67
2022-07-30T18:27:59.370Z,3.88
2022-07-30T18:30:28.261Z,3.97
2022-07-30T18:32:58.523Z,4.72
2022-07-30T18:35:26.362Z,7.47
2022-07-30T18:37:54.394Z,6.05
2022-07-30T18:40:24.235Z,6.32
2022-07-30T18:42:52.566Z,7.07
2022-07-30T18:45:23.382Z,6.15
2022-07-30T18:47:51.371Z,6.95
2022-07-30T18:50:19.253Z,8.57
2022-07-30T18:52:49.406Z,6.07
2022-07-30T18:55:18.716Z,6.57
2022-07-30T18:57:46.705Z,5.40
2022-07-30T19:00:34.409Z,5.57
2022-07-30T19:03:04.336Z,4.63
2022-07-30T19:05:36.622Z,5.20
2022-07-30T19:08:06.282Z,5.43
2022-07-30T19:10:42.141Z,5.13
2022-07-30T19:13:10.129Z,4.80
2022-07-30T19:15:37.916Z,6.63
2022-07-30T19:18:07.038Z,3.95
2022-07-30T19:20:34.833Z,4.47
2022-07-30T19:23:04.786Z,4.88
2022-07-30T19:25:34.239Z,5.20
2022-07-30T19:28:04.935Z,6.05
2022-07-30T19:30:33.894Z,6.72
2022-07-30T19:33:15.131Z,8.52
2022-07-30T19:35:44.228Z,13.50
2022-07-30T19:38:22.016Z,18.55
2022-07-30T19:40:52.368Z,17.50
2022-07-30T19:43:24.235Z,20.42
2022-07-30T19:45:53.248Z,21.40
2022-07-30T19:48:29.203Z,19.58
2022-07-30T19:51:00.863Z,17.45
2022-07-30T19:53:31.458Z,19.63
2022-07-30T19:56:08.280Z,21.65
2022-07-30T19:58:40.109Z,20.70
2022-07-30T20:01:08.902Z,21.20
2022-07-30T20:03:38.901Z,22.35
2022-07-30T20:06:08.036Z,21.90
2022-07-30T20:08:37.223Z,21.13
2022-07-30T20:11:07.472Z,21.88
2022-07-30T20:13:45.214Z,20.65
2022-07-30T20:16:17.121Z,20.90
2022-07-30T20:18:46.601Z,21.92
2022-07-30T20:21:16.723Z,21.75
2022-07-30T20:23:45.279Z,20.90
2022-07-30T20:26:14.931Z,19.52
2022-07-30T20:28:52.326Z,21.05
2022-07-30T20:31:21.445Z,20.70
2022-07-30T20:33:50.806Z,22.98
2022-07-30T20:36:19.420Z,20.00
2022-07-30T20:38:47.861Z,20.33
2022-07-30T20:41:16.189Z,21.77
2022-07-30T20:43:46.087Z,18.50
2022-07-30T20:46:23.171Z,21.10
2022-07-30T20:48:53.012Z,21.30
2022-07-30T20:51:20.996Z,20.90
2022-07-30T20:53:49.398Z,20.45
2022-07-30T20:56:19.424Z,18.75
2022-07-30T20:58:48.341Z,21.85
2022-07-30T21:01:17.677Z,32.53
2022-07-30T21:03:47.670Z,22.48
2022-07-30T21:06:16.620Z,22.50
2022-07-30T21:08:44.315Z,25.33
2022-07-30T21:11:12.841Z,21.63
2022-07-30T21:13:42.384Z,19.13
2022-07-30T21:16:15.656Z,20.13
2022-07-30T21:18:49.298Z,21.95
2022-07-30T21:21:29.152Z,21.13
2022-07-30T21:24:11.608Z,17.60
2022-07-30T21:26:40.759Z,18.85
2022-07-30T21:29:09.157Z,19.65
2022-07-30T21:32:01.360Z,18.83
2022-07-30T21:34:27.421Z,19.30
2022-07-30T21:36:56.863Z,19.83
2022-07-30T21:39:28.998Z,19.05
2022-07-30T21:41:57.596Z,19.45
2022-07-30T21:44:25.423Z,20.30
2022-07-30T21:46:55.753Z,20.02
2022-07-30T21:49:24.249Z,18.85
2022-07-30T21:51:51.965Z,19.50
2022-07-30T21:54:29.204Z,22.50
2022-07-30T21:56:59.407Z,18.05
2022-07-30T21:59:27.527Z,19.42
2022-07-30T22:01:56.116Z,17.05
2022-07-30T22:04:24.989Z,17.80
2022-07-30T22:06:55.189Z,14.55
2022-07-30T22:09:34.033Z,15.05
2022-07-30T22:12:09.383Z,16.45
2022-07-30T22:14:40.514Z,19.50
2022-07-30T22:17:22.738Z,19.13
2022-07-30T22:19:52.210Z,18.30
2022-07-30T22:22:27.041Z,18.48
2022-07-30T22:24:57.232Z,19.42
2022-07-30T22:27:39.826Z,19.60
2022-07-30T22:30:17.316Z,18.02
2022-07-30T22:32:46.008Z,18.95
2022-07-30T22:35:17.237Z,20.95
2022-07-30T22:37:48.582Z,20.20
2022-07-30T22:40:16.323Z,18.77
2022-07-30T22:42:49.764Z,20.00
2022-07-30T22:45:36.026Z,21.48
2022-07-30T22:48:10.270Z,19.15
2022-07-30T22:50:40.018Z,20.92
2022-07-30T22:54:02.489Z,20.08
2022-07-30T22:55:59.153Z,21.00
2022-07-30T22:58:28.902Z,23.48
2022-07-30T23:00:57.586Z,21.23
2022-07-30T23:03:25.309Z,21.88
2022-07-30T23:08:40.850Z,20.42
2022-07-30T23:11:09.931Z,20.08
2022-07-30T23:12:34.677Z,19.58
2022-07-30T23:13:38.687Z,22.25
2022-07-30T23:16:06.895Z,21.67
2022-07-30T23:18:37.690Z,20.83
2022-07-30T23:21:05.686Z,20.40
2022-07-30T23:23:34.419Z,22.52
2022-07-30T23:26:03.867Z,20.63
2022-07-30T23:28:31.751Z,22.30
2022-07-30T23:30:59.552Z,20.27
2022-07-30T23:33:27.566Z,21.13
2022-07-30T23:35:55.372Z,21.23
2022-07-30T23:38:24.299Z,23.25
2022-07-30T23:40:52.537Z,20.52
2022-07-30T23:43:20.366Z,22.27
2022-07-30T23:45:48.294Z,21.65
2022-07-30T23:48:16.077Z,23.02
2022-07-30T23:50:44.904Z,20.73
2022-07-30T23:53:12.658Z,22.92
2022-07-30T23:55:40.520Z,22.20
2022-07-30T23:58:08.222Z,20.60
